createdAt,value
2017-05-08T00:00:06.075Z,13.14
2017-05-08T00:00:47.036Z,13.07
2017-05-08T00:01:27.482Z,13.22
2017-05-08T00:02:07.920Z,13.12
2017-05-08T00:02:48.394Z,13.1
2017-05-08T00:03:28.835Z,13.23
2017-05-08T00:04:09.326Z,13.2
2017-05-08T00:04:49.811Z,13.12
2017-05-08T00:05:30.291Z,13.07
2017-05-08T00:06:10.688Z,13.14
2017-05-08T00:07:58.146Z,13.04
2017-05-08T00:08:38.627Z,13.12
2017-05-08T00:09:19.114Z,13.11
2017-05-08T00:09:59.572Z,13.04
2017-05-08T00:11:36.927Z,13.01
2017-05-08T00:12:17.396Z,13.05
2017-05-08T00:12:57.858Z,13.11
2017-05-08T00:13:38.359Z,13.08
2017-05-08T00:14:18.866Z,13.08
2017-05-08T00:14:59.334Z,13.1
2017-05-08T00:15:39.834Z,13.08
2017-05-08T00:16:20.287Z,13.07
2017-05-08T00:17:00.745Z,13.05
2017-05-08T00:17:41.163Z,13.1
2017-05-08T00:18:21.649Z,13.07
2017-05-08T00:20:14.188Z,13.11
2017-05-08T00:20:54.695Z,13.12
2017-05-08T00:21:35.256Z,13.05
2017-05-08T00:22:16.743Z,13.07
2017-05-08T00:22:57.241Z,13.05
2017-05-08T00:23:37.706Z,13.07
2017-05-08T00:24:18.191Z,13.11
2017-05-08T00:24:58.643Z,13.07
2017-05-08T00:25:39.111Z,13.05
2017-05-08T00:26:19.566Z,13.11
2017-05-08T00:27:00.019Z,13.08
2017-05-08T00:27:40.488Z,13.05
2017-05-08T00:28:20.963Z,13.08
2017-05-08T00:29:01.403Z,13.03
2017-05-08T00:29:41.834Z,13.07
2017-05-08T00:30:22.253Z,13.11
2017-05-08T00:31:02.724Z,13.1
2017-05-08T00:31:43.143Z,13.01
2017-05-08T00:32:23.594Z,13.04
2017-05-08T00:33:04.031Z,13.1
2017-05-08T00:33:44.464Z,13.04
2017-05-08T00:34:24.878Z,13.04
2017-05-08T00:35:05.297Z,13.01
2017-05-08T00:35:45.944Z,13.1
2017-05-08T00:36:26.389Z,13.08
2017-05-08T00:37:06.846Z,13.1
2017-05-08T00:37:47.332Z,13.05
2017-05-08T00:38:27.724Z,13.07
2017-05-08T00:39:08.171Z,13.07
2017-05-08T00:39:48.618Z,13.07
2017-05-08T00:40:29.081Z,13.08
2017-05-08T00:41:09.519Z,13.07
2017-05-08T00:41:49.988Z,13.07
2017-05-08T00:42:30.497Z,13.11
2017-05-08T00:43:11.021Z,13.12
2017-05-08T00:43:51.469Z,13.08
2017-05-08T00:44:31.917Z,12.97
2017-05-08T00:45:12.387Z,13.07
2017-05-08T00:45:52.809Z,13.12
2017-05-08T00:46:33.250Z,13.07
2017-05-08T00:47:13.671Z,13.08
2017-05-08T00:47:54.099Z,12.97
2017-05-08T00:48:34.581Z,13.04
2017-05-08T00:49:15.049Z,13.05
2017-05-08T00:49:55.561Z,13.08
2017-05-08T00:50:36.061Z,13.05
2017-05-08T00:51:16.508Z,13.11
2017-05-08T00:51:56.944Z,13.03
2017-05-08T00:52:37.385Z,13.04
2017-05-08T00:53:17.845Z,13.01
2017-05-08T00:53:58.305Z,12.86
2017-05-08T00:54:39.340Z,13.01
2017-05-08T00:55:19.789Z,12.9
2017-05-08T00:56:00.248Z,12.93
2017-05-08T00:56:40.671Z,12.9
2017-05-08T00:58:18.029Z,12.93
2017-05-08T00:58:58.524Z,12.97
2017-05-08T00:59:38.988Z,12.89
2017-05-08T01:00:19.539Z,12.79
2017-05-08T01:01:00.003Z,12.89
2017-05-08T01:01:40.471Z,12.87
2017-05-08T01:02:20.947Z,12.77
2017-05-08T01:03:58.280Z,12.78
2017-05-08T01:04:38.791Z,12.79
2017-05-08T01:05:19.241Z,12.79
2017-05-08T01:05:59.723Z,12.78
2017-05-08T01:06:40.829Z,12.74
2017-05-08T01:07:21.330Z,12.79
2017-05-08T01:08:01.792Z,12.72
2017-05-08T01:08:42.269Z,12.78
2017-05-08T01:09:22.751Z,12.75
2017-05-08T01:10:03.246Z,12.77
2017-05-08T01:10:43.748Z,12.77
2017-05-08T01:11:24.236Z,12.77
2017-05-08T01:12:04.740Z,12.74
2017-05-08T01:12:45.199Z,12.7
2017-05-08T01:13:25.716Z,12.75
2017-05-08T01:14:06.214Z,12.85
2017-05-08T01:14:46.718Z,12.72
2017-05-08T01:15:27.143Z,12.77
2017-05-08T01:16:07.616Z,12.74
2017-05-08T01:16:48.057Z,12.7
2017-05-08T01:17:28.539Z,12.79
2017-05-08T01:18:08.951Z,12.77
2017-05-08T01:18:49.411Z,12.7
2017-05-08T01:19:29.867Z,12.7
2017-05-08T01:20:10.337Z,12.75
2017-05-08T01:20:50.830Z,12.71
2017-05-08T01:21:31.299Z,12.68
2017-05-08T01:22:11.729Z,12.7
2017-05-08T01:22:52.187Z,12.77
2017-05-08T01:23:32.624Z,12.71
2017-05-08T01:24:13.091Z,12.68
2017-05-08T01:24:53.561Z,12.64
2017-05-08T01:25:34.005Z,12.74
2017-05-08T01:26:15.081Z,12.68
2017-05-08T01:26:55.515Z,12.7
2017-05-08T01:27:35.980Z,12.57
2017-05-08T01:28:16.454Z,12.54
2017-05-08T01:28:56.904Z,12.57
2017-05-08T01:30:54.587Z,12.68
2017-05-08T01:31:35.049Z,12.56
2017-05-08T01:32:15.528Z,12.64
2017-05-08T01:32:56.015Z,12.62
2017-05-08T01:33:36.483Z,12.6
2017-05-08T01:34:16.978Z,12.59
2017-05-08T01:34:57.465Z,12.65
2017-05-08T01:35:37.974Z,12.52
2017-05-08T01:36:18.438Z,12.64
2017-05-08T01:36:58.933Z,12.59
2017-05-08T01:37:39.429Z,12.5
2017-05-08T01:38:19.927Z,12.46
2017-05-08T01:39:00.409Z,12.57
2017-05-08T01:39:40.903Z,12.52
2017-05-08T01:40:21.395Z,12.57
2017-05-08T01:41:01.885Z,12.6
2017-05-08T01:41:42.362Z,12.59
2017-05-08T01:42:22.839Z,12.62
2017-05-08T01:43:03.341Z,12.49
2017-05-08T01:43:43.823Z,12.56
2017-05-08T01:44:24.315Z,12.56
2017-05-08T01:45:04.824Z,12.57
2017-05-08T01:45:45.289Z,12.56
2017-05-08T01:46:25.774Z,12.5
2017-05-08T01:47:06.248Z,12.54
2017-05-08T01:48:53.720Z,12.54
2017-05-08T01:49:34.213Z,12.42
2017-05-08T01:50:14.699Z,12.53
2017-05-08T01:50:55.186Z,12.53
2017-05-08T01:51:35.670Z,12.54
2017-05-08T01:52:16.170Z,12.47
2017-05-08T01:52:56.650Z,12.45
2017-05-08T01:53:37.152Z,12.49
2017-05-08T01:54:17.608Z,12.47
2017-05-08T01:54:58.087Z,12.56
2017-05-08T01:55:38.544Z,12.47
2017-05-08T01:56:19.024Z,12.47
2017-05-08T01:56:59.473Z,12.47
2017-05-08T01:57:39.899Z,12.46
2017-05-08T01:58:20.407Z,12.46
2017-05-08T01:59:00.849Z,12.46
2017-05-08T01:59:41.299Z,12.47
2017-05-08T02:00:21.785Z,12.47
2017-05-08T02:01:02.237Z,12.59
2017-05-08T02:01:42.728Z,12.59
2017-05-08T02:02:23.157Z,12.57
2017-05-08T02:03:03.619Z,12.53
2017-05-08T02:03:44.078Z,12.57
2017-05-08T02:04:24.540Z,12.59
2017-05-08T02:05:04.965Z,12.57
2017-05-08T02:05:45.438Z,12.46
2017-05-08T02:06:25.904Z,12.59
2017-05-08T02:07:06.376Z,12.59
2017-05-08T02:07:46.980Z,12.54
2017-05-08T02:08:27.432Z,12.52
2017-05-08T02:09:07.897Z,12.59
2017-05-08T02:09:48.354Z,12.52
2017-05-08T02:12:01.052Z,12.49
2017-05-08T02:12:41.516Z,12.46
2017-05-08T02:13:22.026Z,12.46
2017-05-08T02:14:02.492Z,12.41
2017-05-08T02:14:42.972Z,12.46
2017-05-08T02:15:23.462Z,12.5
2017-05-08T02:16:03.961Z,12.45
2017-05-08T02:16:44.463Z,12.46
2017-05-08T02:17:24.937Z,12.49
2017-05-08T02:18:05.435Z,12.46
2017-05-08T02:18:45.909Z,12.53
2017-05-08T02:19:26.391Z,12.49
2017-05-08T02:20:06.878Z,12.46
2017-05-08T02:20:47.330Z,12.5
2017-05-08T02:21:27.785Z,12.53
2017-05-08T02:22:08.229Z,12.5
2017-05-08T02:22:48.697Z,12.46
2017-05-08T02:23:29.179Z,12.42
2017-05-08T02:24:10.337Z,12.47
2017-05-08T02:24:50.774Z,12.53
2017-05-08T02:25:31.220Z,12.52
2017-05-08T02:26:11.677Z,12.5
2017-05-08T02:26:52.157Z,12.45
2017-05-08T02:27:32.611Z,12.45
2017-05-08T02:28:13.074Z,12.45
2017-05-08T02:28:53.605Z,12.42
2017-05-08T02:29:35.013Z,12.46
2017-05-08T02:30:15.456Z,12.42
2017-05-08T02:30:55.872Z,12.47
2017-05-08T02:31:36.304Z,12.54
2017-05-08T02:32:16.783Z,12.53
2017-05-08T02:32:57.241Z,12.42
2017-05-08T02:33:37.755Z,12.42
2017-05-08T02:34:18.217Z,12.53
2017-05-08T02:34:58.647Z,12.45
2017-05-08T02:35:39.075Z,12.45
2017-05-08T02:36:19.544Z,12.45
2017-05-08T02:36:59.991Z,12.5
2017-05-08T02:37:40.441Z,12.39
2017-05-08T02:38:20.907Z,12.5
2017-05-08T02:39:01.364Z,12.45
2017-05-08T02:39:41.827Z,12.5
2017-05-08T02:40:22.285Z,12.5
2017-05-08T02:41:02.721Z,12.49
2017-05-08T02:41:43.175Z,12.46
2017-05-08T02:42:23.642Z,12.5
2017-05-08T02:43:04.094Z,12.47
2017-05-08T02:43:44.567Z,12.53
2017-05-08T02:44:24.994Z,12.59
2017-05-08T02:45:05.444Z,12.41
2017-05-08T02:45:45.905Z,12.62
2017-05-08T02:46:26.349Z,12.5
2017-05-08T02:47:06.805Z,12.46
2017-05-08T02:47:47.282Z,12.45
2017-05-08T02:48:27.721Z,12.46
2017-05-08T02:49:08.167Z,12.49
2017-05-08T02:49:48.632Z,12.49
2017-05-08T02:50:29.047Z,12.42
2017-05-08T02:51:10.083Z,12.52
2017-05-08T02:51:50.548Z,12.46
2017-05-08T02:53:38.024Z,12.42
2017-05-08T02:54:18.546Z,12.47
2017-05-08T02:54:58.992Z,12.47
2017-05-08T02:55:39.432Z,12.47
2017-05-08T02:56:19.888Z,12.47
2017-05-08T02:57:00.327Z,12.39
2017-05-08T02:57:40.776Z,12.46
2017-05-08T02:58:21.223Z,12.46
2017-05-08T02:59:01.688Z,12.38
2017-05-08T02:59:42.139Z,12.35
2017-05-08T03:00:22.577Z,12.39
2017-05-08T03:01:03.040Z,12.39
2017-05-08T03:01:43.497Z,12.37
2017-05-08T03:02:23.957Z,12.49
2017-05-08T03:03:04.448Z,12.38
2017-05-08T03:03:44.944Z,12.39
2017-05-08T03:04:25.423Z,12.35
2017-05-08T03:05:05.905Z,12.34
2017-05-08T03:05:46.398Z,12.31
2017-05-08T03:06:26.887Z,12.38
2017-05-08T03:07:07.345Z,12.28
2017-05-08T03:07:47.750Z,12.35
2017-05-08T03:08:28.206Z,12.27
2017-05-08T03:09:08.661Z,12.34
2017-05-08T03:09:49.095Z,12.29
2017-05-08T03:10:29.527Z,12.28
2017-05-08T03:11:09.962Z,12.31
2017-05-08T03:11:50.420Z,12.29
2017-05-08T03:12:30.850Z,12.35
2017-05-08T03:13:11.291Z,12.32
2017-05-08T03:13:51.721Z,12.24
2017-05-08T03:14:32.186Z,12.27
2017-05-08T03:15:12.616Z,12.21
2017-05-08T03:15:53.092Z,12.28
2017-05-08T03:16:33.548Z,12.32
2017-05-08T03:17:13.986Z,12.24
2017-05-08T03:17:54.502Z,12.23
2017-05-08T03:18:34.899Z,12.27
2017-05-08T03:19:15.344Z,12.28
2017-05-08T03:19:55.770Z,12.27
2017-05-08T03:20:36.212Z,12.28
2017-05-08T03:21:16.670Z,12.16
2017-05-08T03:21:57.096Z,12.21
2017-05-08T03:22:37.562Z,12.2
2017-05-08T03:23:18.025Z,12.2
2017-05-08T03:23:58.477Z,12.17
2017-05-08T03:24:38.911Z,12.17
2017-05-08T03:25:19.369Z,12.21
2017-05-08T03:25:59.846Z,12.17
2017-05-08T03:26:40.315Z,12.2
2017-05-08T03:27:20.780Z,12.17
2017-05-08T03:28:01.213Z,12.2
2017-05-08T03:28:42.529Z,12.13
2017-05-08T03:29:22.989Z,12.12
2017-05-08T03:30:03.431Z,12.23
2017-05-08T03:30:43.871Z,12.14
2017-05-08T03:31:24.338Z,12.2
2017-05-08T03:32:04.759Z,12.12
2017-05-08T03:32:45.179Z,12.19
2017-05-08T03:33:25.634Z,12.07
2017-05-08T03:34:06.027Z,12.07
2017-05-08T03:34:46.482Z,12.12
2017-05-08T03:35:26.915Z,12.05
2017-05-08T03:37:14.408Z,12.1
2017-05-08T03:37:54.877Z,11.99
2017-05-08T03:38:35.360Z,11.99
2017-05-08T03:39:15.818Z,12.04
2017-05-08T03:39:56.297Z,11.98
2017-05-08T03:40:36.793Z,12.07
2017-05-08T03:41:17.281Z,12.14
2017-05-08T03:41:57.762Z,12.17
2017-05-08T03:42:38.228Z,12.14
2017-05-08T03:43:18.720Z,12.17
2017-05-08T03:43:59.205Z,12.14
2017-05-08T03:44:39.649Z,12.01
2017-05-08T03:45:20.073Z,12.13
2017-05-08T03:46:00.507Z,12.04
2017-05-08T03:46:40.958Z,12.02
2017-05-08T03:47:21.405Z,12.14
2017-05-08T03:48:01.849Z,12.1
2017-05-08T03:48:42.333Z,12.12
2017-05-08T03:49:22.755Z,12.05
2017-05-08T03:50:03.210Z,12.09
2017-05-08T03:50:43.646Z,12.07
2017-05-08T03:51:24.104Z,12.07
2017-05-08T03:52:04.550Z,12.04
2017-05-08T03:52:45.817Z,12.07
2017-05-08T03:53:26.303Z,12.05
2017-05-08T03:54:06.746Z,12.09
2017-05-08T03:54:47.165Z,12.12
2017-05-08T03:55:27.622Z,12.1
2017-05-08T03:56:08.078Z,12.07
2017-05-08T03:56:48.637Z,12.09
2017-05-08T03:57:29.087Z,12.12
2017-05-08T03:58:09.544Z,12.07
2017-05-08T03:58:50.019Z,12.09
2017-05-08T03:59:30.436Z,12.01
2017-05-08T04:00:10.854Z,12.04
2017-05-08T04:00:51.312Z,12.13
2017-05-08T04:01:31.754Z,11.99
2017-05-08T04:03:44.528Z,12.05
2017-05-08T04:04:25.006Z,11.99
2017-05-08T04:05:05.500Z,12.1
2017-05-08T04:05:45.969Z,12.01
2017-05-08T04:07:23.294Z,12.01
2017-05-08T04:08:03.783Z,12.01
2017-05-08T04:08:44.290Z,12.12
2017-05-08T04:09:24.787Z,12.09
2017-05-08T04:10:05.268Z,12.12
2017-05-08T04:10:45.780Z,12.17
2017-05-08T04:11:26.236Z,12.2
2017-05-08T04:12:06.719Z,12.13
2017-05-08T04:12:47.217Z,12.09
2017-05-08T04:13:27.693Z,12.05
2017-05-08T04:14:08.162Z,12.09
2017-05-08T04:14:48.654Z,12.09
2017-05-08T04:15:29.184Z,12.07
2017-05-08T04:16:09.677Z,12.09
2017-05-08T04:16:50.155Z,11.98
2017-05-08T04:17:30.626Z,12.02
2017-05-08T04:18:11.112Z,12.13
2017-05-08T04:18:52.085Z,12.05
2017-05-08T04:19:32.539Z,12.07
2017-05-08T04:20:13.749Z,12.07
2017-05-08T04:20:54.279Z,12.12
2017-05-08T04:21:34.672Z,12.19
2017-05-08T04:22:15.098Z,12.17
2017-05-08T04:22:55.539Z,12.17
2017-05-08T04:23:35.979Z,12.16
2017-05-08T04:24:16.416Z,12.09
2017-05-08T04:24:56.861Z,12.13
2017-05-08T04:25:37.325Z,12.02
2017-05-08T04:26:17.773Z,12.01
2017-05-08T04:26:58.215Z,11.99
2017-05-08T04:27:38.638Z,12.12
2017-05-08T04:28:19.161Z,12.02
2017-05-08T04:28:59.619Z,12.17
2017-05-08T04:29:40.046Z,12.09
2017-05-08T04:30:20.517Z,12.07
2017-05-08T04:31:00.972Z,12.13
2017-05-08T04:31:41.419Z,11.99
2017-05-08T04:32:21.846Z,12.04
2017-05-08T04:33:02.335Z,12.13
2017-05-08T04:33:42.788Z,12.01
2017-05-08T04:34:23.224Z,12.02
2017-05-08T04:35:04.047Z,11.91
2017-05-08T04:35:44.571Z,12.02
2017-05-08T04:36:24.991Z,12.04
2017-05-08T04:37:05.431Z,11.99
2017-05-08T04:37:45.870Z,12.02
2017-05-08T04:38:26.313Z,12.02
2017-05-08T04:39:06.765Z,11.98
2017-05-08T04:39:47.227Z,12.02
2017-05-08T04:40:27.648Z,11.95
2017-05-08T04:41:08.101Z,11.9
2017-05-08T04:41:48.560Z,12.05
2017-05-08T04:42:28.992Z,11.98
2017-05-08T04:43:09.473Z,12.05
2017-05-08T04:43:50.003Z,12.05
2017-05-08T04:44:30.422Z,11.96
2017-05-08T04:45:10.897Z,11.99
2017-05-08T04:45:51.344Z,11.88
2017-05-08T04:46:31.804Z,11.94
2017-05-08T04:47:12.262Z,12.02
2017-05-08T04:47:52.718Z,11.8
2017-05-08T04:48:33.172Z,11.91
2017-05-08T04:49:13.607Z,11.96
2017-05-08T04:49:54.203Z,11.98
2017-05-08T04:50:34.615Z,11.83
2017-05-08T04:51:15.073Z,11.8
2017-05-08T04:51:55.537Z,12.01
2017-05-08T04:52:36.002Z,12.07
2017-05-08T04:54:28.534Z,12.09
2017-05-08T04:55:09.051Z,12.04
2017-05-08T04:55:49.536Z,12.05
2017-05-08T04:56:30.009Z,12.07
2017-05-08T04:57:10.490Z,12.05
2017-05-08T04:57:50.964Z,12.12
2017-05-08T04:58:31.574Z,12.07
2017-05-08T04:59:12.053Z,12.02
2017-05-08T04:59:52.544Z,12.02
2017-05-08T05:00:33.042Z,12.05
2017-05-08T05:01:13.521Z,12.04
2017-05-08T05:01:54.596Z,11.99
2017-05-08T05:02:35.059Z,11.98
2017-05-08T05:03:15.536Z,12.05
2017-05-08T05:03:56.020Z,12.01
2017-05-08T05:04:36.461Z,11.9
2017-05-08T05:05:16.917Z,11.91
2017-05-08T05:05:57.389Z,11.79
2017-05-08T05:06:37.811Z,11.91
2017-05-08T05:07:18.257Z,11.94
2017-05-08T05:07:58.684Z,11.86
2017-05-08T05:08:39.136Z,11.91
2017-05-08T05:09:19.593Z,11.99
2017-05-08T05:10:00.016Z,11.98
2017-05-08T05:11:52.560Z,11.95
2017-05-08T05:12:33.013Z,11.94
2017-05-08T05:13:13.511Z,11.94
2017-05-08T05:13:53.994Z,11.94
2017-05-08T05:14:34.497Z,12.04
2017-05-08T05:15:14.993Z,11.94
2017-05-08T05:15:55.482Z,11.98
2017-05-08T05:16:35.943Z,11.9
2017-05-08T05:17:16.426Z,11.86
2017-05-08T05:17:56.905Z,11.91
2017-05-08T05:18:38.388Z,11.79
2017-05-08T05:19:18.833Z,11.94
2017-05-08T05:19:59.319Z,11.98
2017-05-08T05:20:39.831Z,11.9
2017-05-08T05:21:20.305Z,11.95
2017-05-08T05:22:00.781Z,11.95
2017-05-08T05:22:41.263Z,11.95
2017-05-08T05:23:21.732Z,11.95
2017-05-08T05:24:02.162Z,11.98
2017-05-08T05:24:42.614Z,11.98
2017-05-08T05:25:23.081Z,11.95
2017-05-08T05:26:03.552Z,11.9
2017-05-08T05:26:44.100Z,12.05
2017-05-08T05:27:24.553Z,12.1
2017-05-08T05:28:05.034Z,12.05
2017-05-08T05:28:45.501Z,12.09
2017-05-08T05:29:25.988Z,11.96
2017-05-08T05:30:06.420Z,12.01
2017-05-08T05:30:46.853Z,12.07
2017-05-08T05:31:27.321Z,11.94
2017-05-08T05:32:07.741Z,11.94
2017-05-08T05:32:48.168Z,12.01
2017-05-08T05:33:28.590Z,11.9
2017-05-08T05:34:09.551Z,11.99
2017-05-08T05:34:50.076Z,11.98
2017-05-08T05:35:30.497Z,12.04
2017-05-08T05:36:10.915Z,12.01
2017-05-08T05:36:52.227Z,11.9
2017-05-08T05:37:32.678Z,12.04
2017-05-08T05:38:13.115Z,12.05
2017-05-08T05:38:53.575Z,12.02
2017-05-08T05:39:34.037Z,12.04
2017-05-08T05:40:14.482Z,12.09
2017-05-08T05:40:55.947Z,12.04
2017-05-08T05:41:36.397Z,11.99
2017-05-08T05:42:16.847Z,12.01
2017-05-08T05:42:57.332Z,11.98
2017-05-08T05:43:37.776Z,11.9
2017-05-08T05:44:18.220Z,11.94
2017-05-08T05:44:58.669Z,11.99
2017-05-08T05:45:39.865Z,12.02
2017-05-08T05:46:20.305Z,12.07
2017-05-08T05:47:00.780Z,12.04
2017-05-08T05:47:41.207Z,12.07
2017-05-08T05:48:21.657Z,12.05
2017-05-08T05:49:02.093Z,12.02
2017-05-08T05:49:42.542Z,12.05
2017-05-08T05:50:22.997Z,11.96
2017-05-08T05:51:03.456Z,11.98
2017-05-08T05:51:43.943Z,11.94
2017-05-08T05:52:24.323Z,12.04
2017-05-08T05:53:04.792Z,11.96
2017-05-08T05:53:45.262Z,11.94
2017-05-08T05:54:25.809Z,12.07
2017-05-08T05:55:06.163Z,12.05
2017-05-08T05:55:46.585Z,12.04
2017-05-08T05:56:27.050Z,12.05
2017-05-08T05:57:07.538Z,11.99
2017-05-08T05:57:47.942Z,12.09
2017-05-08T05:58:28.392Z,12.05
2017-05-08T05:59:08.876Z,12.05
2017-05-08T05:59:49.391Z,12.09
2017-05-08T06:00:30.382Z,12.01
2017-05-08T06:01:10.782Z,12.09
2017-05-08T06:01:51.224Z,12.05
2017-05-08T06:02:31.690Z,12.05
2017-05-08T06:03:12.245Z,12.1
2017-05-08T06:03:52.705Z,12.1
2017-05-08T06:04:33.151Z,12.04
2017-05-08T06:05:13.594Z,12.07
2017-05-08T06:05:54.042Z,12.1
2017-05-08T06:06:34.513Z,12.09
2017-05-08T06:07:14.971Z,12.09
2017-05-08T06:07:55.449Z,12.1
2017-05-08T06:09:53.104Z,12.19
2017-05-08T06:10:33.600Z,12.05
2017-05-08T06:11:14.102Z,12.12
2017-05-08T06:11:54.635Z,12.07
2017-05-08T06:12:35.122Z,12.1
2017-05-08T06:13:15.609Z,12.1
2017-05-08T06:13:56.093Z,12.21
2017-05-08T06:14:36.579Z,12.13
2017-05-08T06:15:17.032Z,12.17
2017-05-08T06:15:57.470Z,12.12
2017-05-08T06:16:37.947Z,12.12
2017-05-08T06:17:18.449Z,12.17
2017-05-08T06:17:58.916Z,12.16
2017-05-08T06:18:39.374Z,12.13
2017-05-08T06:19:19.817Z,12.05
2017-05-08T06:20:00.271Z,12.05
2017-05-08T06:20:40.717Z,12.05
2017-05-08T06:21:21.176Z,12.02
2017-05-08T06:22:01.598Z,12.02
2017-05-08T06:22:42.070Z,12.09
2017-05-08T06:23:22.531Z,12.02
2017-05-08T06:25:15.171Z,12.02
2017-05-08T06:25:55.561Z,11.98
2017-05-08T06:26:35.968Z,11.9
2017-05-08T06:27:16.445Z,11.95
2017-05-08T06:27:56.907Z,11.94
2017-05-08T06:28:37.381Z,11.88
2017-05-08T06:29:17.876Z,11.95
2017-05-08T06:29:58.368Z,11.91
2017-05-08T06:30:39.526Z,11.98
2017-05-08T06:31:21.103Z,11.88
2017-05-08T06:32:01.724Z,11.91
2017-05-08T06:32:42.471Z,11.88
2017-05-08T06:34:40.916Z,11.95
2017-05-08T06:35:22.063Z,11.95
2017-05-08T06:36:02.992Z,11.94
2017-05-08T06:36:43.754Z,11.9
2017-05-08T06:37:24.399Z,11.94
2017-05-08T06:38:04.829Z,12.02
2017-05-08T06:38:45.277Z,11.96
2017-05-08T06:39:25.747Z,11.96
2017-05-08T06:40:06.203Z,12.02
2017-05-08T06:40:46.689Z,11.91
2017-05-08T06:41:27.132Z,12.02
2017-05-08T06:42:07.622Z,12.05
2017-05-08T06:42:48.063Z,12.05
2017-05-08T06:44:41.583Z,12.01
2017-05-08T06:45:22.048Z,11.99
2017-05-08T06:46:02.563Z,11.91
2017-05-08T06:46:43.040Z,11.91
2017-05-08T06:47:23.502Z,11.98
2017-05-08T06:48:04.001Z,12.09
2017-05-08T06:48:44.446Z,11.98
2017-05-08T06:49:24.862Z,12.07
2017-05-08T06:50:05.285Z,12.02
2017-05-08T06:50:45.719Z,11.96
2017-05-08T06:51:26.198Z,12.01
2017-05-08T06:52:06.673Z,12.05
2017-05-08T06:52:47.315Z,12.1
2017-05-08T06:53:27.762Z,12.02
2017-05-08T06:54:08.202Z,12.1
2017-05-08T06:54:48.616Z,12.05
2017-05-08T06:55:29.055Z,12.12
2017-05-08T06:56:09.523Z,12.2
2017-05-08T06:56:49.942Z,12.14
2017-05-08T06:57:30.378Z,12.13
2017-05-08T06:58:10.835Z,12.13
2017-05-08T06:58:51.996Z,12.1
2017-05-08T06:59:32.439Z,12.1
2017-05-08T07:00:12.995Z,12.09
2017-05-08T07:00:53.508Z,12.05
2017-05-08T07:01:34.106Z,12.05
2017-05-08T07:02:14.577Z,12.13
2017-05-08T07:02:55.057Z,12.12
2017-05-08T07:03:35.498Z,12.16
2017-05-08T07:04:15.974Z,12.13
2017-05-08T07:04:56.436Z,12.02
2017-05-08T07:05:37.000Z,12.02
2017-05-08T07:06:17.643Z,12.02
2017-05-08T07:06:58.206Z,11.91
2017-05-08T07:07:38.742Z,12.04
2017-05-08T07:08:19.250Z,11.85
2017-05-08T07:08:59.695Z,11.65
2017-05-08T07:09:40.195Z,11.65
2017-05-08T07:10:20.664Z,11.61
2017-05-08T07:11:01.128Z,11.78
2017-05-08T07:11:41.641Z,11.55
2017-05-08T07:12:22.078Z,11.58
2017-05-08T07:13:02.547Z,11.58
2017-05-08T07:13:43.031Z,11.49
2017-05-08T07:14:23.637Z,11.47
2017-05-08T07:16:36.664Z,11.57
2017-05-08T07:17:17.205Z,11.69
2017-05-08T07:17:57.624Z,11.55
2017-05-08T07:18:38.168Z,11.54
2017-05-08T07:20:50.797Z,11.51
2017-05-08T07:21:31.292Z,11.35
2017-05-08T07:22:11.752Z,11.19
2017-05-08T07:22:52.239Z,11.32
2017-05-08T07:23:32.719Z,11.19
2017-05-08T07:25:46.697Z,11.15
2017-05-08T07:27:43.887Z,11.14
2017-05-08T07:28:24.440Z,11.04
2017-05-08T07:29:04.835Z,11.06
2017-05-08T07:29:45.335Z,11.07
2017-05-08T07:30:25.811Z,11.06
2017-05-08T07:32:03.188Z,11
2017-05-08T07:32:43.644Z,10.96
2017-05-08T07:33:24.200Z,10.89
2017-05-08T07:34:04.614Z,10.96
2017-05-08T07:34:45.082Z,10.97
2017-05-08T07:35:25.573Z,10.86
2017-05-08T07:36:06.088Z,10.91
2017-05-08T07:36:46.543Z,10.88
2017-05-08T07:37:27.015Z,10.89
2017-05-08T07:38:07.516Z,10.89
2017-05-08T07:38:47.977Z,10.89
2017-05-08T07:39:28.444Z,10.91
2017-05-08T07:40:08.884Z,10.99
2017-05-08T07:40:49.305Z,10.82
2017-05-08T07:41:29.738Z,10.91
2017-05-08T07:42:10.173Z,10.82
2017-05-08T07:42:50.632Z,10.74
2017-05-08T07:43:31.089Z,10.79
2017-05-08T07:44:11.549Z,10.79
2017-05-08T07:45:59.026Z,10.79
2017-05-08T07:46:40.702Z,10.74
2017-05-08T07:49:20.793Z,10.63
2017-05-08T07:50:01.265Z,10.7
2017-05-08T07:50:41.745Z,10.63
2017-05-08T07:51:22.251Z,10.68
2017-05-08T07:52:02.709Z,10.71
2017-05-08T07:53:40.140Z,10.71
2017-05-08T07:54:20.778Z,10.78
2017-05-08T07:55:01.068Z,10.67
2017-05-08T07:55:41.677Z,10.68
2017-05-08T07:56:22.198Z,10.67
2017-05-08T07:57:03.047Z,10.64
2017-05-08T07:58:40.429Z,10.85
2017-05-08T07:59:20.913Z,10.82
2017-05-08T08:00:01.577Z,10.71
2017-05-08T08:00:42.099Z,10.71
2017-05-08T08:02:34.790Z,10.64
2017-05-08T08:03:15.580Z,10.68
2017-05-08T08:03:56.021Z,10.68
2017-05-08T08:05:53.827Z,10.67
2017-05-08T08:06:34.310Z,10.68
2017-05-08T08:07:14.702Z,10.74
2017-05-08T08:07:55.189Z,10.67
2017-05-08T08:08:35.675Z,10.71
2017-05-08T08:09:16.543Z,10.76
2017-05-08T08:09:57.999Z,10.74
2017-05-08T08:10:37.574Z,10.71
2017-05-08T08:11:18.124Z,10.79
2017-05-08T08:11:58.655Z,10.71
2017-05-08T08:12:40.486Z,10.71
2017-05-08T08:13:21.000Z,10.81
2017-05-08T08:14:01.810Z,10.91
2017-05-08T08:14:42.529Z,10.85
2017-05-08T08:15:23.099Z,10.71
2017-05-08T08:16:03.663Z,10.79
2017-05-08T08:16:44.104Z,10.81
2017-05-08T08:17:24.800Z,10.7
2017-05-08T08:18:05.333Z,10.86
2017-05-08T08:18:46.014Z,10.73
2017-05-08T08:19:26.571Z,10.81
2017-05-08T08:20:07.172Z,10.71
2017-05-08T08:20:47.758Z,10.73
2017-05-08T08:21:28.333Z,10.66
2017-05-08T08:22:08.946Z,10.67
2017-05-08T08:22:49.493Z,10.79
2017-05-08T08:23:30.004Z,10.71
2017-05-08T08:24:10.488Z,10.74
2017-05-08T08:24:50.948Z,10.7
2017-05-08T08:25:31.464Z,10.71
2017-05-08T08:27:44.185Z,10.73
2017-05-08T08:28:24.795Z,10.67
2017-05-08T08:29:05.492Z,10.67
2017-05-08T08:29:45.998Z,10.71
2017-05-08T08:30:26.544Z,10.7
2017-05-08T08:31:07.158Z,10.7
2017-05-08T08:31:47.799Z,10.7
2017-05-08T08:32:28.315Z,10.7
2017-05-08T08:33:08.834Z,10.67
2017-05-08T08:33:49.499Z,10.6
2017-05-08T08:34:30.042Z,10.61
2017-05-08T08:35:10.500Z,10.7
2017-05-08T08:36:57.946Z,10.68
2017-05-08T08:37:38.448Z,10.7
2017-05-08T08:38:18.913Z,10.67
2017-05-08T08:38:59.436Z,10.66
2017-05-08T08:39:39.890Z,10.71
2017-05-08T08:40:20.908Z,10.71
2017-05-08T08:41:01.351Z,10.76
2017-05-08T08:41:42.069Z,10.7
2017-05-08T08:42:22.535Z,10.63
2017-05-08T08:43:03.005Z,10.56
2017-05-08T08:43:43.450Z,10.61
2017-05-08T08:45:36.351Z,10.52
2017-05-08T08:46:16.802Z,10.61
2017-05-08T08:46:57.239Z,10.71
2017-05-08T08:47:37.805Z,10.64
2017-05-08T08:48:18.267Z,10.66
2017-05-08T08:48:58.785Z,10.67
2017-05-08T08:49:39.301Z,10.71
2017-05-08T08:50:19.866Z,10.67
2017-05-08T08:51:00.434Z,10.68
2017-05-08T08:51:40.979Z,10.71
2017-05-08T08:52:21.433Z,10.66
2017-05-08T08:53:01.999Z,10.73
2017-05-08T08:53:42.655Z,10.79
2017-05-08T08:54:23.199Z,10.68
2017-05-08T08:55:03.768Z,10.85
2017-05-08T08:55:44.344Z,10.86
2017-05-08T08:56:24.995Z,10.84
2017-05-08T08:57:05.438Z,10.76
2017-05-08T08:57:45.895Z,10.74
2017-05-08T08:59:43.597Z,10.38
2017-05-08T09:00:24.099Z,10.48
2017-05-08T09:01:04.620Z,10.45
2017-05-08T09:02:52.163Z,10.51
2017-05-08T09:03:32.593Z,10.51
2017-05-08T09:04:13.063Z,10.3
2017-05-08T09:04:53.474Z,10.34
2017-05-08T09:06:46.069Z,10.48
2017-05-08T09:08:43.788Z,10.52
2017-05-08T09:09:24.241Z,10.44
2017-05-08T09:10:04.834Z,10.33
2017-05-08T09:10:45.150Z,10.48
2017-05-08T09:11:25.863Z,10.4
2017-05-08T09:13:38.721Z,10.59
2017-05-08T09:14:19.250Z,10.51
2017-05-08T09:14:59.780Z,10.47
2017-05-08T09:15:40.465Z,10.44
2017-05-08T09:17:33.041Z,10.42
2017-05-08T09:18:13.490Z,10.3
2017-05-08T09:18:54.027Z,10.33
2017-05-08T09:19:34.579Z,10.32
2017-05-08T09:20:14.984Z,10.41
2017-05-08T09:20:55.742Z,10.3
2017-05-08T09:21:36.312Z,10.33
2017-05-08T09:22:16.788Z,10.32
2017-05-08T09:24:09.573Z,10.11
2017-05-08T09:24:49.950Z,10.18
2017-05-08T09:25:30.462Z,10.34
2017-05-08T09:26:11.079Z,10.25
2017-05-08T09:26:51.576Z,10.3
2017-05-08T09:27:32.117Z,10.3
2017-05-08T09:28:12.692Z,10.47
2017-05-08T09:28:53.179Z,10.41
2017-05-08T09:29:33.742Z,10.56
2017-05-08T09:30:14.214Z,10.64
2017-05-08T09:30:54.794Z,10.48
2017-05-08T09:31:35.467Z,10.51